Time;durP1;ratioP1;P1;durP2;ratioP2;P2;SDS_P1;SDS_P2;PMS_P1;PMS_P2;Temp;Humidity;BMP_temperature;BMP_pressure;BME280_temperature;BME280_humidity;BME280_pressure;Samples;Min_cycle;Max_cycle;Signal;HPM_P1;HPM_P2
2021/12/17 00:00:05;;;;;;;30.50;16.60;;;;;;;7.41;92.63;103961.13;5029487;28;20659;-74
2021/12/17 00:05:31;;;;;;;28.90;16.90;;;;;;;7.42;92.82;103958.66;5038889;28;20233;-74
2021/12/17 00:07:56;;;;;;;29.47;15.90;;;;;;;7.43;92.87;103960.47;5036581;28;20189;-73
2021/12/17 00:10:22;;;;;;;28.87;17.53;;;;;;;7.44;94.13;103957.16;5049653;28;20229;-74
2021/12/17 00:12:47;;;;;;;28.97;16.87;;;;;;;7.45;92.91;103951.28;5042492;28;20801;-74
2021/12/17 00:15:12;;;;;;;33.67;18.43;;;;;;;7.45;92.99;103958.03;5028321;28;20222;-73
2021/12/17 00:17:49;;;;;;;30.67;17.90;;;;;;;7.44;93.74;103961.34;5041875;28;20180;-74
2021/12/17 00:52:18;;;;;;;20.60;11.57;;;;;;;7.44;94.45;103967.34;5049811;28;20260;-74
2021/12/17 00:54:43;;;;;;;19.63;11.00;;;;;;;7.43;93.60;103967.22;5050874;28;20738;-74
2021/12/17 00:57:14;;;;;;;18.87;10.70;;;;;;;7.42;94.21;103963.75;5050873;28;20256;-73
2021/12/17 00:59:49;;;;;;;19.73;10.10;;;;;;;7.42;94.05;103962.91;5051185;28;20193;-74
2021/12/17 01:02:21;;;;;;;20.60;10.47;;;;;;;7.41;94.02;103963.66;5036640;28;20671;-73
2021/12/17 01:04:51;;;;;;;17.97;9.63;;;;;;;7.40;93.64;103964.41;5042351;28;20206;-74
2021/12/17 01:07:20;;;;;;;17.37;9.47;;;;;;;7.38;93.98;103964.28;5031366;28;20228;-74
2021/12/17 01:09:45;;;;;;;16.00;9.07;;;;;;;7.40;94.48;103959.31;5044216;28;20185;-74
2021/12/17 01:12:12;;;;;;;17.03;9.43;;;;;;;7.39;94.69;103955.88;5051176;28;20189;-74
2021/12/17 01:14:46;;;;;;;18.87;9.90;;;;;;;7.38;93.88;103959.19;5050976;28;20245;-74
2021/12/17 01:17:26;;;;;;;14.67;8.97;;;;;;;7.39;93.93;103960.09;5048506;28;20190;-74
2021/12/17 01:20:28;;;;;;;18.13;10.10;;;;;;;7.38;93.74;103960.84;5046579;28;20174;-74
2021/12/17 01:35:27;;;;;;;19.67;11.83;;;;;;;7.33;93.73;103934.09;5044762;28;20206;-73
2021/12/17 01:43:10;;;;;;;20.73;11.23;;;;;;;7.36;94.19;103944.53;5044253;28;20183;-74
2021/12/17 01:45:38;;;;;;;21.67;12.30;;;;;;;7.34;94.67;103940.97;5037217;28;20194;-74
2021/12/17 01:48:09;;;;;;;24.50;13.70;;;;;;;7.35;94.85;103933.47;5045938;28;20682;-74
2021/12/17 02:01:37;;;;;;;30.60;15.53;;;;;;;7.31;94.83;103946.72;5045770;28;20217;-74
2021/12/17 02:04:04;;;;;;;27.23;14.43;;;;;;;7.29;94.17;103945.72;5039615;28;20208;-74
2021/12/17 02:06:31;;;;;;;25.07;12.97;;;;;;;7.30;94.81;103941.47;5041393;28;20571;-74
2021/12/17 02:08:59;;;;;;;21.60;11.97;;;;;;;7.31;94.34;103943.25;5046797;28;20193;-74
2021/12/17 02:30:43;;;;;;;31.77;17.67;;;;;;;7.33;94.09;103919.69;5032287;28;20186;-74
2021/12/17 02:33:09;;;;;;;33.20;17.97;;;;;;;7.33;94.78;103909.47;5036613;28;20174;-74
2021/12/17 02:35:41;;;;;;;34.37;17.47;;;;;;;7.34;94.76;103906.19;5041860;28;20240;-74
2021/12/17 02:38:08;;;;;;;33.50;18.73;;;;;;;7.31;94.51;103908.47;5029832;28;20190;-74
2021/12/17 02:47:03;;;;;;;39.27;18.63;;;;;;;7.32;94.65;103912.81;5029585;28;20231;-74
2021/12/17 02:49:30;;;;;;;31.43;16.87;;;;;;;7.32;94.10;103919.59;5031823;28;20700;-74
2021/12/17 02:51:57;;;;;;;36.47;17.17;;;;;;;7.30;94.39;103919.44;5038528;28;20635;-74
2021/12/17 02:54:25;;;;;;;30.20;14.53;;;;;;;7.32;94.07;103922.13;5039834;28;20680;-74
2021/12/17 02:56:50;;;;;;;31.07;15.33;;;;;;;7.31;94.18;103922.88;5031846;28;20695;-74
2021/12/17 02:59:16;;;;;;;27.80;14.10;;;;;;;7.29;94.69;103915.13;5043924;28;20183;-74
2021/12/17 03:01:45;;;;;;;23.47;12.80;;;;;;;7.29;94.01;103912.59;5044655;28;20217;-74
2021/12/17 03:04:11;;;;;;;23.77;12.17;;;;;;;7.30;93.88;103916.00;5047019;28;20271;-74
2021/12/17 03:06:37;;;;;;;21.20;11.77;;;;;;;7.29;93.29;103925.31;5048633;28;20173;-74
2021/12/17 03:09:04;;;;;;;23.03;12.47;;;;;;;7.28;94.21;103925.19;5050046;28;20335;-74
2021/12/17 03:11:29;;;;;;;17.60;10.43;;;;;;;7.29;94.03;103938.06;5045605;28;20285;-74
2021/12/17 03:13:55;;;;;;;20.10;10.87;;;;;;;7.28;93.76;103926.06;5030317;28;20210;-74
2021/12/17 03:16:39;;;;;;;16.53;9.67;;;;;;;7.29;93.02;103926.97;5040241;28;20189;-74
2021/12/17 03:23:27;;;;;;;19.37;10.83;;;;;;;7.28;93.65;103926.06;5033801;28;20270;-74
2021/12/17 03:24:36;;;;;;;15.40;9.47;;;;;;;7.31;93.60;103927.97;5028478;28;20228;-74
2021/12/17 03:27:04;;;;;;;18.43;10.73;;;;;;;7.29;93.65;103930.41;5039982;28;20197;-74
2021/12/17 03:29:30;;;;;;;19.90;10.93;;;;;;;7.29;93.68;103932.06;5046529;28;20190;-74
2021/12/17 03:32:01;;;;;;;17.70;11.17;;;;;;;7.30;93.18;103936.38;5030003;28;20192;-74
2021/12/17 03:34:27;;;;;;;17.27;11.07;;;;;;;7.30;93.68;103923.66;5046275;28;20221;-74
2021/12/17 03:36:56;;;;;;;15.70;10.60;;;;;;;7.29;93.52;103914.22;5043480;28;20185;-74
2021/12/17 03:39:24;;;;;;;18.83;12.50;;;;;;;7.31;94.26;103915.22;5028242;28;20606;-74
2021/12/17 03:41:52;;;;;;;16.20;10.87;;;;;;;7.29;93.71;103915.13;5031903;28;20173;-74
2021/12/17 03:44:24;;;;;;;15.23;10.67;;;;;;;7.31;94.15;103916.13;5048319;28;20212;-74
2021/12/17 03:47:00;;;;;;;13.13;9.97;;;;;;;7.31;93.04;103911.03;5048220;28;20192;-74
2021/12/17 03:49:26;;;;;;;12.53;10.03;;;;;;;7.31;93.36;103918.69;5047756;28;20235;-74
2021/12/17 03:52:04;;;;;;;15.30;10.20;;;;;;;7.31;94.42;103926.31;5044612;28;20170;-74
2021/12/17 03:54:35;;;;;;;15.60;11.03;;;;;;;7.30;93.12;103924.56;5028174;28;20292;-74
2021/12/17 03:57:02;;;;;;;16.07;11.17;;;;;;;7.31;94.01;103916.13;5041239;28;20217;-74
2021/12/17 03:59:28;;;;;;;16.43;11.70;;;;;;;7.31;93.55;103908.47;5047551;28;20300;-74
2021/12/17 04:01:54;;;;;;;17.43;12.47;;;;;;;7.30;94.36;103908.34;5028539;28;20197;-74
2021/12/17 04:04:19;;;;;;;17.53;13.07;;;;;;;7.29;94.66;103884.53;5029343;28;20202;-74
2021/12/17 04:06:49;;;;;;;16.10;11.77;;;;;;;7.28;94.46;103871.69;5028203;28;20648;-74
2021/12/17 04:09:31;;;;;;;17.47;12.03;;;;;;;7.27;93.78;103880.09;5027936;28;20178;-74
2021/12/17 04:12:09;;;;;;;16.47;10.97;;;;;;;7.25;93.92;103887.59;5047338;28;20654;-73
2021/12/17 04:14:51;;;;;;;16.70;11.83;;;;;;;7.24;93.51;103888.34;5047958;28;20218;-75
2021/12/17 04:17:23;;;;;;;16.73;11.53;;;;;;;7.26;93.52;103881.75;5036457;28;20769;-75
2021/12/17 04:19:48;;;;;;;17.93;11.83;;;;;;;7.26;94.31;103888.47;5047814;28;20274;-75
2021/12/17 04:22:14;;;;;;;16.57;11.00;;;;;;;7.25;94.42;103879.06;5047818;28;20401;-74
2021/12/17 04:24:39;;;;;;;13.70;10.23;;;;;;;7.26;93.55;103879.19;5047794;28;20217;-74
2021/12/17 04:27:06;;;;;;;13.87;9.50;;;;;;;7.26;94.01;103891.03;5047904;28;20196;-74
2021/12/17 04:29:33;;;;;;;16.40;11.40;;;;;;;7.25;93.83;103892.72;5049149;28;20189;-75
2021/12/17 04:32:00;;;;;;;17.87;10.67;;;;;;;7.25;93.61;103887.59;5046991;28;20178;-74
2021/12/17 04:34:31;;;;;;;16.50;9.87;;;;;;;7.24;93.56;103887.47;5031503;28;20214;-75
2021/12/17 04:36:58;;;;;;;17.13;10.17;;;;;;;7.23;93.26;103891.66;5027954;28;20186;-74
2021/12/17 04:39:36;;;;;;;15.30;9.57;;;;;;;7.23;92.89;103888.25;5061689;28;20200;-74
2021/12/17 04:42:07;;;;;;;15.60;9.97;;;;;;;7.26;93.51;103893.56;5047314;28;20193;-73
2021/12/17 04:44:37;;;;;;;13.73;9.07;;;;;;;7.25;93.20;103892.72;5047523;28;20209;-74
2021/12/17 04:57:56;;;;;;;13.40;10.13;;;;;;;7.24;93.04;103892.56;5039521;28;20194;-75
2021/12/17 05:00:26;;;;;;;14.03;9.37;;;;;;;7.22;92.85;103895.00;5031047;28;20178;-74
2021/12/17 05:03:11;;;;;;;14.17;10.67;;;;;;;7.24;92.79;103903.63;5046744;28;20190;-75
2021/12/17 05:05:38;;;;;;;15.80;11.77;;;;;;;7.22;92.31;103906.81;5047588;28;20193;-74
2021/12/17 05:08:16;;;;;;;17.20;11.47;;;;;;;7.22;92.83;103902.63;5047028;28;20272;-74
2021/12/17 05:19:17;;;;;;;18.93;11.57;;;;;;;7.22;93.77;103917.94;5008898;28;20318;-75
2021/12/17 05:21:42;;;;;;;16.83;11.63;;;;;;;7.22;92.86;103915.38;5028674;28;20178;-74
2021/12/17 05:24:08;;;;;;;19.37;12.07;;;;;;;7.22;92.86;103923.03;5031053;28;20281;-74
2021/12/17 05:26:33;;;;;;;16.23;11.73;;;;;;;7.22;93.28;103923.03;5031129;28;20632;-74
2021/12/17 05:28:59;;;;;;;17.63;11.90;;;;;;;7.21;94.00;103912.69;5031290;28;20695;-74
2021/12/17 05:31:30;;;;;;;19.73;13.27;;;;;;;7.21;93.02;103917.78;5035531;28;20182;-74
2021/12/17 05:33:56;;;;;;;22.77;13.73;;;;;;;7.21;93.39;103913.59;5034939;28;20270;-74
2021/12/17 05:36:26;;;;;;;21.23;13.27;;;;;;;7.22;92.96;103914.47;5050837;28;20264;-74
2021/12/17 05:39:10;;;;;;;21.23;13.27;;;;;;;7.20;93.16;103918.56;5040576;28;20182;-74
2021/12/17 05:41:36;;;;;;;20.53;12.83;;;;;;;7.19;94.16;103925.31;5047666;28;20273;-74
2021/12/17 05:44:21;;;;;;;19.73;12.67;;;;;;;7.21;93.48;103918.69;5032379;28;20605;-73
2021/12/17 05:46:50;;;;;;;21.03;12.13;;;;;;;7.20;93.70;103914.38;5033110;28;20174;-74
2021/12/17 05:49:22;;;;;;;18.40;11.43;;;;;;;7.19;93.35;103904.06;5022582;28;20273;-74
2021/12/17 05:51:49;;;;;;;19.20;11.63;;;;;;;7.18;93.78;103904.81;5047123;28;20190;-74
2021/12/17 05:54:16;;;;;;;16.90;11.57;;;;;;;7.18;93.98;103902.28;5030448;28;20691;-74
2021/12/17 05:56:41;;;;;;;19.23;13.37;;;;;;;7.17;93.36;103903.91;5047222;28;20324;-74
2021/12/17 05:59:07;;;;;;;19.13;12.37;;;;;;;7.16;93.87;103906.34;5030233;28;20658;-73
2021/12/17 06:01:32;;;;;;;15.53;10.60;;;;;;;7.16;93.18;103903.78;5031767;28;20194;-75
2021/12/17 06:03:58;;;;;;;15.77;10.67;;;;;;;7.14;93.24;103900.25;5014825;28;20290;-75
2021/12/17 06:06:28;;;;;;;15.87;10.23;;;;;;;7.13;93.69;103889.13;5042067;28;20196;-75
2021/12/17 06:08:54;;;;;;;13.07;8.97;;;;;;;7.09;93.11;103873.50;5047128;28;20185;-74
2021/12/17 06:11:20;;;;;;;12.07;8.00;;;;;;;7.11;93.04;103867.75;5030363;28;20186;-74
2021/12/17 06:13:45;;;;;;;14.67;8.93;;;;;;;7.09;93.40;103871.81;5029940;28;20692;-74
2021/12/17 06:16:10;;;;;;;14.00;8.20;;;;;;;7.07;94.28;103882.66;5032071;28;20193;-74
2021/12/17 06:18:36;;;;;;;12.73;8.57;;;;;;;7.04;93.22;103873.09;5044662;28;20175;-73
2021/12/17 06:21:02;;;;;;;14.73;9.60;;;;;;;7.02;93.89;103861.91;5038962;28;20185;-74
2021/12/17 06:23:27;;;;;;;15.23;9.90;;;;;;;7.04;93.03;103870.56;5049669;28;20582;-74
2021/12/17 06:25:53;;;;;;;13.17;9.30;;;;;;;7.01;93.41;103888.13;5050294;28;20184;-73
2021/12/17 06:28:19;;;;;;;14.87;9.20;;;;;;;7.00;93.72;103899.09;5049477;28;20193;-74
2021/12/17 06:30:44;;;;;;;14.63;8.70;;;;;;;6.99;93.30;103899.84;5042909;28;20190;-74
2021/12/17 06:33:18;;;;;;;13.07;8.00;;;;;;;7.00;92.84;103901.63;5036731;28;20277;-73
2021/12/17 06:35:43;;;;;;;13.10;8.10;;;;;;;7.00;93.42;103900.75;5036639;28;20294;-73
2021/12/17 06:38:09;;;;;;;15.10;9.47;;;;;;;6.99;93.90;103915.13;5049393;28;20553;-74
2021/12/17 06:40:36;;;;;;;18.53;10.87;;;;;;;7.00;92.90;103922.00;5049531;28;20186;-73
2021/12/17 06:43:03;;;;;;;15.03;10.20;;;;;;;6.99;93.98;103920.22;5049494;28;20220;-74
2021/12/17 06:48:04;;;;;;;18.83;11.07;;;;;;;6.98;93.77;103927.75;5049187;28;20239;-73
2021/12/17 07:00:07;;;;;;;21.53;11.80;;;;;;;6.95;93.68;103922.41;5030463;28;20202;-75
2021/12/17 07:06:04;;;;;;;22.37;12.23;;;;;;;6.91;94.13;103925.47;5030354;28;20194;-75
2021/12/17 07:20:17;;;;;;;22.23;12.63;;;;;;;6.90;95.04;103933.84;5028646;28;20277;-75
2021/12/17 07:25:01;;;;;;;22.23;12.77;;;;;;;6.87;94.61;103937.03;5028618;28;20293;-75
2021/12/17 07:33:21;;;;;;;23.07;14.40;;;;;;;6.88;94.91;103931.19;5048557;28;20196;-75
2021/12/17 07:36:07;;;;;;;20.07;13.17;;;;;;;6.88;93.98;103933.75;5048778;28;20681;-75
2021/12/17 07:41:03;;;;;;;19.60;12.30;;;;;;;6.88;94.73;103923.56;5048653;28;20181;-74
2021/12/17 07:43:39;;;;;;;19.73;11.93;;;;;;;6.88;94.95;103918.47;5048601;28;20245;-74
2021/12/17 07:46:13;;;;;;;19.70;11.60;;;;;;;6.88;94.25;103915.91;5048248;28;20170;-75
2021/12/17 07:48:39;;;;;;;26.10;14.67;;;;;;;6.90;94.46;103916.91;5048162;28;20677;-75
2021/12/17 07:51:11;;;;;;;31.00;15.00;;;;;;;6.91;94.48;103925.47;5048242;28;20193;-74
2021/12/17 07:53:48;;;;;;;26.30;13.40;;;;;;;6.88;95.29;103921.00;5048214;28;20635;-75
2021/12/17 07:56:25;;;;;;;21.87;13.37;;;;;;;6.83;95.24;103929.00;5048214;28;20190;-74
2021/12/17 07:58:56;;;;;;;19.73;12.97;;;;;;;6.83;94.54;103932.47;5048057;28;20239;-75
2021/12/17 08:01:22;;;;;;;18.13;13.07;;;;;;;6.82;94.64;103933.22;5048176;28;20193;-74
2021/12/17 08:03:48;;;;;;;20.13;13.17;;;;;;;6.83;94.67;103940.13;5048055;28;20193;-74
2021/12/17 08:06:37;;;;;;;20.83;12.93;;;;;;;6.86;94.86;103947.13;5046221;28;20228;-75
2021/12/17 08:09:11;;;;;;;20.80;11.80;;;;;;;6.84;95.14;103944.44;5047810;28;20751;-75
2021/12/17 08:11:39;;;;;;;20.37;12.77;;;;;;;6.84;95.32;103939.34;5047967;28;20566;-75
2021/12/17 08:14:13;;;;;;;20.17;12.23;;;;;;;6.85;95.16;103942.75;5047912;28;20308;-75
2021/12/17 08:16:47;;;;;;;19.97;13.10;;;;;;;6.83;94.45;103935.00;5047257;28;20247;-74
2021/12/17 08:24:53;;;;;;;17.00;11.97;;;;;;;6.85;94.22;103946.22;5034732;28;20229;-74
2021/12/17 08:30:25;;;;;;;16.53;11.77;;;;;;;6.83;93.50;103942.66;5035747;28;20198;-75
2021/12/17 08:32:57;;;;;;;15.87;11.03;;;;;;;6.83;94.16;103946.84;5047337;28;20225;-73
2021/12/17 08:35:22;;;;;;;15.77;11.40;;;;;;;6.83;94.16;103949.38;5047096;28;20236;-74
2021/12/17 08:37:51;;;;;;;19.00;12.63;;;;;;;6.83;93.23;103942.66;5047254;28;20182;-74
2021/12/17 08:40:16;;;;;;;19.80;12.77;;;;;;;6.84;93.25;103940.97;5030811;28;20215;-74
2021/12/17 08:42:49;;;;;;;20.77;13.10;;;;;;;6.80;94.17;103938.94;5047399;28;20194;-75
2021/12/17 08:45:14;;;;;;;21.10;13.53;;;;;;;6.81;94.50;103949.25;5047223;28;20208;-74
2021/12/17 08:47:47;;;;;;;30.23;14.73;;;;;;;6.95;94.50;103958.94;5048982;28;20268;-73
2021/12/17 08:50:15;;;;;;;25.37;13.53;;;;;;;7.04;94.00;103961.38;5047599;28;20618;-73
2021/12/17 08:52:41;;;;;;;25.30;13.73;;;;;;;6.95;94.21;103956.41;5047503;28;20225;-75
2021/12/17 08:55:07;;;;;;;24.90;13.67;;;;;;;6.90;93.87;103962.75;5047015;28;20217;-72
2021/12/17 08:57:33;;;;;;;23.07;13.07;;;;;;;6.86;93.25;103950.53;5049479;28;20185;-74
2021/12/17 09:00:04;;;;;;;23.93;12.87;;;;;;;6.86;93.78;103950.53;5050846;28;20178;-73
2021/12/17 09:02:46;;;;;;;24.77;14.43;;;;;;;6.86;94.27;103942.88;5051059;28;20193;-75
2021/12/17 09:05:32;;;;;;;27.97;14.33;;;;;;;6.87;93.91;103947.22;5052181;28;20193;-75
2021/12/17 09:07:57;;;;;;;25.77;13.83;;;;;;;6.88;93.77;103948.13;5034211;28;20178;-76
2021/12/17 09:10:40;;;;;;;27.27;14.70;;;;;;;6.86;94.50;103953.06;5050770;28;20174;-75
2021/12/17 09:13:07;;;;;;;33.37;15.93;;;;;;;6.90;94.07;103969.50;5030123;28;20225;-74
2021/12/17 09:15:33;;;;;;;26.53;15.00;;;;;;;6.93;93.52;103975.78;5048989;28;20241;-74
2021/12/17 09:18:02;;;;;;;26.83;14.73;;;;;;;6.90;94.22;103970.41;5052058;28;20259;-74
2021/12/17 09:20:31;;;;;;;26.27;13.27;;;;;;;6.91;94.10;103973.84;5050686;28;20813;-73
2021/12/17 09:22:56;;;;;;;18.07;9.63;;;;;;;6.92;93.81;103970.53;5050762;28;20185;-74
2021/12/17 09:25:28;;;;;;;16.40;8.80;;;;;;;7.13;94.00;103968.13;5050610;28;20208;-72
2021/12/17 09:27:57;;;;;;;16.03;9.00;;;;;;;7.12;93.52;103968.91;5050415;28;20178;-73
2021/12/17 09:30:39;;;;;;;15.83;9.00;;;;;;;7.02;94.10;103974.00;5051334;28;20169;-74
2021/12/17 09:33:06;;;;;;;13.83;8.73;;;;;;;7.02;93.67;103979.09;5051508;28;20201;-74
2021/12/17 09:35:31;;;;;;;14.93;8.73;;;;;;;7.00;94.03;103979.72;5051667;28;20667;-73
2021/12/17 09:37:56;;;;;;;18.67;11.27;;;;;;;6.99;93.83;103986.47;5051310;28;20189;-74
2021/12/17 09:40:22;;;;;;;21.27;12.57;;;;;;;6.99;93.60;103990.66;5051552;28;20185;-74
2021/12/17 09:42:48;;;;;;;27.77;15.60;;;;;;;7.02;94.36;103996.00;5051979;28;20178;-74
2021/12/17 09:45:15;;;;;;;32.23;16.67;;;;;;;7.02;94.76;103990.91;5051543;28;20202;-73
2021/12/17 09:47:42;;;;;;;35.73;18.03;;;;;;;6.99;94.41;103983.91;5051369;28;20178;-74
2021/12/17 09:50:09;;;;;;;36.67;18.87;;;;;;;7.03;94.33;103988.50;5051319;28;20204;-73
2021/12/17 09:52:35;;;;;;;34.07;18.73;;;;;;;6.99;95.13;103988.09;5051405;28;20193;-72
2021/12/17 09:55:02;;;;;;;34.03;17.73;;;;;;;6.96;94.17;103982.78;5051056;28;20263;-73
2021/12/17 09:57:27;;;;;;;30.40;16.43;;;;;;;6.97;94.92;103976.91;5051354;28;20178;-73
2021/12/17 09:59:53;;;;;;;34.80;19.23;;;;;;;7.08;94.89;103971.94;5051169;28;20659;-75
2021/12/17 10:02:20;;;;;;;34.00;17.53;;;;;;;7.07;95.14;103982.00;5051321;28;20212;-74
2021/12/17 10:04:46;;;;;;;34.53;17.77;;;;;;;7.06;94.22;103988.78;5051302;28;20713;-74
2021/12/17 10:07:25;;;;;;;30.27;16.93;;;;;;;7.07;95.13;103989.66;5023358;28;20225;-73
2021/12/17 10:09:51;;;;;;;31.17;17.23;;;;;;;7.08;94.75;103991.44;5048897;28;20228;-74
2021/12/17 10:12:16;;;;;;;27.77;16.50;;;;;;;7.04;94.88;103991.97;5050437;28;20225;-74
2021/12/17 10:14:56;;;;;;;26.63;15.77;;;;;;;7.07;94.65;103988.00;5050310;28;20224;-74
2021/12/17 10:17:22;;;;;;;20.13;11.67;;;;;;;7.10;94.35;103995.00;5030928;28;20619;-74
2021/12/17 10:19:50;;;;;;;12.23;8.37;;;;;;;7.10;93.54;104002.66;5030752;28;20175;-74
2021/12/17 10:22:19;;;;;;;7.77;5.37;;;;;;;7.07;93.90;104000.75;5035569;28;20875;-74
2021/12/17 10:24:56;;;;;;;9.50;5.43;;;;;;;7.06;93.58;104006.59;5029816;28;20233;-73
2021/12/17 10:27:27;;;;;;;10.00;6.27;;;;;;;7.06;93.67;104004.06;5050594;28;20197;-74
2021/12/17 10:29:53;;;;;;;8.97;7.07;;;;;;;7.09;93.40;104000.88;5048070;28;20186;-74
2021/12/17 10:32:20;;;;;;;8.17;6.50;;;;;;;7.09;94.02;103994.09;5048539;28;20197;-73
2021/12/17 10:35:03;;;;;;;8.83;7.00;;;;;;;7.06;93.96;103991.31;5050853;28;20242;-75
2021/12/17 10:37:38;;;;;;;9.37;7.13;;;;;;;7.08;94.05;104002.53;5035409;28;20191;-74
2021/12/17 10:40:34;;;;;;;9.57;6.57;;;;;;;7.12;93.98;104003.66;5035552;28;20689;-74
2021/12/17 10:43:08;;;;;;;9.47;6.23;;;;;;;7.13;93.80;104000.34;5050842;28;20194;-74
2021/12/17 10:45:42;;;;;;;11.70;7.40;;;;;;;7.11;92.94;103999.34;5046554;28;20224;-74
2021/12/17 10:51:18;;;;;;;12.17;8.90;;;;;;;7.11;92.47;104006.97;5039530;28;20251;-74
2021/12/17 10:53:56;;;;;;;12.40;8.70;;;;;;;7.13;92.17;104002.88;5048276;28;20233;-74
2021/12/17 10:56:32;;;;;;;14.47;9.83;;;;;;;7.12;92.50;104001.13;5050687;28;20184;-75
2021/12/17 10:59:05;;;;;;;15.00;10.47;;;;;;;7.16;92.13;103990.41;5050037;28;20223;-74
2021/12/17 11:01:46;;;;;;;14.27;10.63;;;;;;;7.14;91.74;103980.09;5050157;28;20709;-74
2021/12/17 11:04:23;;;;;;;18.83;13.27;;;;;;;7.08;92.59;103987.22;5050177;28;20701;-74
2021/12/17 11:07:02;;;;;;;20.70;14.17;;;;;;;7.09;92.42;103998.31;5050305;28;20182;-73
2021/12/17 11:09:39;;;;;;;21.50;13.87;;;;;;;7.10;92.15;103989.91;5049998;28;20182;-73
2021/12/17 11:12:13;;;;;;;22.23;14.73;;;;;;;7.06;92.61;103986.22;5050129;28;20193;-73
2021/12/17 11:14:43;;;;;;;22.07;14.93;;;;;;;7.06;92.92;103983.69;5048718;28;20586;-74
2021/12/17 11:17:14;;;;;;;22.57;15.40;;;;;;;7.07;92.63;103984.56;5049997;28;20201;-74
2021/12/17 11:19:41;;;;;;;26.90;17.83;;;;;;;7.05;92.26;103986.09;5049307;28;20225;-74
2021/12/17 11:22:06;;;;;;;24.60;17.30;;;;;;;7.04;91.91;103979.22;5049942;28;20193;-73
2021/12/17 11:24:34;;;;;;;24.93;17.17;;;;;;;7.06;92.28;103976.03;5039955;28;20229;-74
2021/12/17 11:27:04;;;;;;;29.33;18.67;;;;;;;7.05;92.55;103969.13;5049622;28;20666;-74
2021/12/17 11:29:30;;;;;;;26.60;17.27;;;;;;;7.10;91.63;103972.09;5049412;28;20193;-74
2021/12/17 11:31:58;;;;;;;28.87;19.30;;;;;;;7.08;91.49;103959.22;5049804;28;20715;-74
2021/12/17 11:34:24;;;;;;;30.60;20.00;;;;;;;7.01;91.65;103967.09;5048483;28;20210;-74
2021/12/17 11:36:51;;;;;;;31.07;18.47;;;;;;;7.02;92.57;103960.34;5049764;28;20198;-74
2021/12/17 11:39:23;;;;;;;28.60;18.23;;;;;;;7.00;92.55;103946.59;5048954;28;20670;-74
2021/12/17 11:41:57;;;;;;;27.07;17.53;;;;;;;7.03;91.32;103960.50;5049766;28;20197;-75
2021/12/17 11:44:29;;;;;;;30.00;18.60;;;;;;;6.99;92.14;103973.72;5049536;28;20250;-73
2021/12/17 11:47:06;;;;;;;29.47;19.27;;;;;;;7.00;91.79;103964.44;5049834;28;20250;-74
2021/12/17 11:49:36;;;;;;;27.90;18.33;;;;;;;7.04;91.48;103963.94;5049343;28;20650;-75
2021/12/17 11:52:03;;;;;;;29.37;18.97;;;;;;;7.04;90.72;103962.25;5045246;28;20810;-74
2021/12/17 11:54:31;;;;;;;31.40;20.17;;;;;;;7.08;91.08;103961.75;5036076;28;20222;-74
2021/12/17 11:57:06;;;;;;;30.83;18.67;;;;;;;7.11;90.88;103954.38;5030571;28;20682;-74
2021/12/17 11:59:35;;;;;;;31.87;19.83;;;;;;;7.09;91.02;103947.38;5049568;28;20181;-74
2021/12/17 12:02:23;;;;;;;29.57;19.60;;;;;;;7.11;90.95;103956.03;5050004;28;20181;-74
2021/12/17 12:05:04;;;;;;;27.80;18.87;;;;;;;7.16;90.99;103950.56;5049647;28;20304;-74
2021/12/17 12:07:29;;;;;;;32.60;19.70;;;;;;;7.12;91.34;103955.25;5049875;28;20610;-74
2021/12/17 12:09:57;;;;;;;34.37;20.50;;;;;;;7.13;91.89;103957.03;5047386;28;20194;-74
2021/12/17 12:12:30;;;;;;;35.13;21.73;;;;;;;7.08;91.48;103954.13;5037412;28;20671;-74
2021/12/17 12:17:58;;;;;;;41.63;24.23;;;;;;;7.08;92.52;103958.31;5054183;28;20185;-74
2021/12/17 12:20:49;;;;;;;39.87;23.27;;;;;;;7.10;91.59;103956.78;5063103;28;20231;-74
2021/12/17 12:23:20;;;;;;;41.23;23.97;;;;;;;7.11;92.90;103956.94;5029429;28;20611;-74
2021/12/17 12:26:03;;;;;;;35.53;21.73;;;;;;;7.11;92.30;103959.47;5028195;28;20269;-73
2021/12/17 12:28:44;;;;;;;27.90;19.00;;;;;;;7.08;91.64;103968.50;5032268;28;20270;-74
2021/12/17 12:31:10;;;;;;;22.07;16.83;;;;;;;7.09;91.79;103973.72;5049368;28;20700;-74
2021/12/17 12:33:35;;;;;;;22.67;16.17;;;;;;;7.18;90.81;103969.41;5053261;28;20292;-73
2021/12/17 12:36:00;;;;;;;20.83;15.53;;;;;;;7.14;91.03;103966.47;5051958;28;20200;-73
2021/12/17 12:38:32;;;;;;;21.43;16.10;;;;;;;7.08;90.72;103959.22;5053019;28;20673;-74
2021/12/17 12:41:00;;;;;;;21.50;16.27;;;;;;;7.09;90.42;103962.66;5053109;28;20627;-73
2021/12/17 12:43:33;;;;;;;22.90;17.43;;;;;;;7.09;91.00;103961.00;5053021;28;20284;-73
2021/12/17 12:45:59;;;;;;;21.07;16.03;;;;;;;7.10;90.33;103955.13;5053145;28;20276;-73
2021/12/17 12:48:38;;;;;;;19.13;15.10;;;;;;;7.08;91.22;103961.75;5052865;28;20232;-73
2021/12/17 12:51:18;;;;;;;20.70;14.80;;;;;;;7.03;90.40;103957.03;5053043;28;20579;-74
2021/12/17 12:54:02;;;;;;;21.13;15.40;;;;;;;7.04;91.21;103963.94;5051387;28;20770;-74
2021/12/17 12:56:28;;;;;;;24.07;15.17;;;;;;;7.08;90.93;103971.03;5051736;28;20255;-73
2021/12/17 12:58:54;;;;;;;20.27;15.20;;;;;;;7.10;91.71;103970.41;5052568;28;20194;-74
2021/12/17 13:01:21;;;;;;;21.73;15.30;;;;;;;7.13;91.42;103968.13;5052844;28;20181;-73
2021/12/17 13:03:47;;;;;;;20.57;15.43;;;;;;;7.12;91.28;103968.00;5052639;28;20245;-74
2021/12/17 13:06:17;;;;;;;21.83;16.40;;;;;;;7.15;91.27;103963.16;5039433;28;20549;-74
2021/12/17 13:08:43;;;;;;;21.40;14.50;;;;;;;7.15;92.48;103965.72;5032642;28;20233;-74
2021/12/17 13:11:09;;;;;;;20.90;14.70;;;;;;;7.14;91.85;103954.63;5032868;28;20178;-73
2021/12/17 13:13:50;;;;;;;19.03;14.57;;;;;;;7.15;92.15;103945.31;5032864;28;20676;-74
2021/12/17 13:21:43;;;;;;;21.80;15.53;;;;;;;7.21;91.94;103946.72;5032571;28;20521;-74
2021/12/17 13:24:23;;;;;;;29.23;18.83;;;;;;;7.23;92.87;103944.31;5032105;28;20634;-74
2021/12/17 13:26:51;;;;;;;28.00;17.77;;;;;;;7.22;92.99;103938.31;5031094;28;20677;-73
2021/12/17 13:29:30;;;;;;;25.90;16.80;;;;;;;7.22;92.95;103942.50;5030985;28;20186;-73
2021/12/17 13:32:03;;;;;;;27.20;17.53;;;;;;;7.22;92.80;103935.75;5031195;28;20179;-73
2021/12/17 13:34:38;;;;;;;29.67;18.27;;;;;;;7.23;93.63;103934.13;5031050;28;20218;-73
2021/12/17 13:37:20;;;;;;;29.37;17.47;;;;;;;7.23;94.27;103941.75;5031106;28;20193;-73
2021/12/17 13:39:55;;;;;;;34.10;18.30;;;;;;;7.18;93.80;103940.50;5030821;28;20293;-74
2021/12/17 13:42:23;;;;;;;31.70;18.43;;;;;;;7.21;94.60;103934.00;5030754;28;20186;-73
2021/12/17 13:44:53;;;;;;;29.43;17.93;;;;;;;7.23;93.83;103940.09;5030927;28;20249;-74
2021/12/17 13:47:28;;;;;;;31.63;16.80;;;;;;;7.23;94.32;103927.34;5031218;28;20524;-74
2021/12/17 13:50:01;;;;;;;31.37;17.03;;;;;;;7.25;95.25;103932.56;5030693;28;20216;-74
2021/12/17 13:52:29;;;;;;;30.27;17.50;;;;;;;7.25;94.94;103933.47;5030817;28;20230;-74
2021/12/17 13:54:56;;;;;;;26.57;15.90;;;;;;;7.26;95.25;103931.81;5030614;28;20233;-74
2021/12/17 13:57:24;;;;;;;27.33;15.50;;;;;;;7.25;94.89;103920.75;5030685;28;20229;-74
2021/12/17 13:59:51;;;;;;;28.57;16.23;;;;;;;7.26;95.36;103919.06;5030552;28;20186;-74
2021/12/17 14:02:18;;;;;;;25.30;14.57;;;;;;;7.23;95.28;103912.06;5030667;28;20273;-73
2021/12/17 14:05:00;;;;;;;26.37;15.17;;;;;;;7.25;96.17;103919.84;5030518;28;20576;-73
2021/12/17 14:07:28;;;;;;;21.73;13.73;;;;;;;7.27;95.50;103918.31;5050634;28;20403;-74
2021/12/17 14:09:59;;;;;;;26.63;14.47;;;;;;;7.28;95.77;103913.31;5048919;28;20189;-73
2021/12/17 14:12:31;;;;;;;23.60;14.27;;;;;;;7.29;95.08;103912.59;5050489;28;20308;-74
2021/12/17 14:14:59;;;;;;;25.77;14.60;;;;;;;7.28;95.82;103920.09;5048932;28;20225;-73
2021/12/17 14:17:33;;;;;;;28.57;15.40;;;;;;;7.28;95.42;103915.88;5050458;28;20188;-73
2021/12/17 14:20:06;;;;;;;28.43;15.67;;;;;;;7.28;96.23;103910.78;5050207;28;20190;-73
2021/12/17 14:22:34;;;;;;;32.10;16.23;;;;;;;7.30;96.55;103909.25;5050634;28;20682;-73